createdAt,value
2018-09-06T00:01:38.444Z,5.31
2018-09-06T00:07:33.462Z,4.91
2018-09-06T00:13:28.445Z,4.98
2018-09-06T00:19:23.465Z,5.96
2018-09-06T00:25:18.439Z,5.45
2018-09-06T00:31:13.459Z,5.35
2018-09-06T00:37:08.442Z,4.63
2018-09-06T00:43:03.568Z,4.9
2018-09-06T00:48:58.499Z,4.6
2018-09-06T00:54:53.452Z,5.1
2018-09-06T01:00:48.460Z,5.08
2018-09-06T01:06:43.524Z,4.94
2018-09-06T01:12:38.499Z,4.85
2018-09-06T01:18:33.477Z,4.94
2018-09-06T01:24:28.482Z,4.59
2018-09-06T01:30:23.479Z,5.24
2018-09-06T01:36:18.515Z,5.22
2018-09-06T01:42:13.505Z,4.62
2018-09-06T01:48:08.499Z,4.8
2018-09-06T01:54:03.579Z,4.4
2018-09-06T01:59:58.524Z,5
2018-09-06T02:05:53.537Z,4.9
2018-09-06T02:11:48.551Z,4.73
2018-09-06T02:17:43.566Z,5.12
2018-09-06T02:23:38.545Z,4.74
2018-09-06T02:29:33.567Z,4.66
2018-09-06T02:35:28.555Z,5.33
2018-09-06T02:41:23.578Z,5.15
2018-09-06T02:47:18.607Z,4.84
2018-09-06T02:53:13.577Z,5.18
2018-09-06T02:59:08.554Z,4.83
2018-09-06T03:05:03.563Z,5.98
2018-09-06T03:10:58.567Z,4.88
2018-09-06T03:16:53.627Z,4.88
2018-09-06T03:22:48.620Z,5.53
2018-09-06T03:28:43.587Z,5.26
2018-09-06T03:34:38.611Z,5.17
2018-09-06T03:40:33.592Z,7
2018-09-06T03:46:28.587Z,6.31
2018-09-06T03:52:23.671Z,6.61
2018-09-06T03:58:18.669Z,5.82
2018-09-06T04:04:13.633Z,6.81
2018-09-06T04:10:08.606Z,6.65
2018-09-06T04:16:03.621Z,6.57
2018-09-06T04:21:58.694Z,6.49
2018-09-06T04:27:53.645Z,6.89
2018-09-06T04:33:48.635Z,7.09
2018-09-06T04:39:43.661Z,7.23
2018-09-06T04:45:38.633Z,6.07
2018-09-06T04:51:33.630Z,6.34
2018-09-06T04:57:28.643Z,6.64
2018-09-06T05:03:24.346Z,6.24
2018-09-06T05:09:18.690Z,6.4
2018-09-06T05:15:13.690Z,6.34
2018-09-06T05:21:08.678Z,6.5
2018-09-06T05:27:03.704Z,6.44
2018-09-06T05:32:58.681Z,7.09
2018-09-06T05:38:53.683Z,6.45
2018-09-06T05:44:48.690Z,6.33
2018-09-06T05:50:43.677Z,7.22
2018-09-06T05:56:38.695Z,6.6
2018-09-06T06:02:33.690Z,6.98
2018-09-06T06:08:28.685Z,7.3
2018-09-06T06:14:23.691Z,12.33
2018-09-06T06:20:18.713Z,9.99
2018-09-06T06:26:13.710Z,8.68
2018-09-06T06:32:08.790Z,8.98
2018-09-06T06:38:03.695Z,8.14
2018-09-06T06:43:58.774Z,8.67
2018-09-06T06:49:53.777Z,10.14
2018-09-06T06:55:48.758Z,14
2018-09-06T07:01:43.732Z,12.48
2018-09-06T07:07:38.814Z,10.3
2018-09-06T07:13:33.734Z,9.31
2018-09-06T07:19:28.780Z,8.76
2018-09-06T07:25:23.759Z,9.26
2018-09-06T07:31:18.795Z,8.55
2018-09-06T07:37:13.776Z,8.07
2018-09-06T07:43:08.762Z,9.38
2018-09-06T07:49:03.798Z,8.53
2018-09-06T07:54:58.771Z,9.07
2018-09-06T08:00:53.839Z,8.66
2018-09-06T08:06:48.772Z,8.1
2018-09-06T08:12:43.770Z,7.58
2018-09-06T08:18:38.818Z,7.11
2018-09-06T08:24:33.827Z,6.24
2018-09-06T08:30:28.809Z,6.17
2018-09-06T08:36:23.795Z,7.1
2018-09-06T08:42:18.832Z,5.63
2018-09-06T08:48:13.846Z,5.19
2018-09-06T08:54:08.857Z,6.48
2018-09-06T09:00:03.824Z,6.5
2018-09-06T09:05:58.877Z,9.16
2018-09-06T09:11:54.582Z,8.62
2018-09-06T09:17:48.841Z,7.9
2018-09-06T09:23:43.874Z,8.14
2018-09-06T09:29:38.859Z,7.17
2018-09-06T09:35:33.881Z,6.53
2018-09-06T09:41:28.942Z,5.4
2018-09-06T09:53:18.869Z,5.13
2018-09-06T09:59:13.901Z,4.37
2018-09-06T10:05:08.922Z,3.87
2018-09-06T10:11:03.898Z,2.75
2018-09-06T10:16:58.883Z,2.89
2018-09-06T10:22:53.916Z,2.93
2018-09-06T10:28:48.933Z,2.63
2018-09-06T10:34:43.913Z,2.67
2018-09-06T10:40:39.008Z,2.79
2018-09-06T10:46:33.911Z,2.77
2018-09-06T10:52:28.925Z,2.92
2018-09-06T10:58:23.980Z,2.76
2018-09-06T11:04:18.927Z,2.78
2018-09-06T11:10:13.927Z,2.94
2018-09-06T11:16:08.954Z,3.02
2018-09-06T11:22:04.075Z,3.44
2018-09-06T11:27:59.082Z,3.16
2018-09-06T11:33:53.956Z,2.82
2018-09-06T11:39:48.963Z,3.06
2018-09-06T11:45:43.966Z,2.57
2018-09-06T11:51:39.030Z,2.55
2018-09-06T11:57:33.992Z,2.8
2018-09-06T12:03:29.000Z,2.83
2018-09-06T12:09:23.993Z,2.93
2018-09-06T12:15:19.071Z,2.57
2018-09-06T12:21:14.023Z,2.66
2018-09-06T12:27:09.692Z,2.58
2018-09-06T12:33:04.076Z,2.88
2018-09-06T12:38:59.026Z,2.7
2018-09-06T12:44:54.029Z,2.52
2018-09-06T12:50:49.036Z,2.79
2018-09-06T12:56:44.133Z,2.94
2018-09-06T13:02:39.081Z,2.77
2018-09-06T13:08:34.052Z,2.94
2018-09-06T13:14:29.073Z,2.87
2018-09-06T13:20:24.077Z,2.65
2018-09-06T13:26:19.093Z,3.07
2018-09-06T13:32:14.119Z,2.87
2018-09-06T13:38:09.117Z,2.67
2018-09-06T13:44:04.067Z,3.05
2018-09-06T13:49:59.072Z,2.84
2018-09-06T13:55:54.127Z,2.68
2018-09-06T14:01:49.162Z,2.86
2018-09-06T14:07:44.150Z,2.9
2018-09-06T14:13:39.163Z,3.12
2018-09-06T14:19:34.127Z,2.76
2018-09-06T14:25:29.122Z,3.33
2018-09-06T14:31:24.139Z,2.73
2018-09-06T14:37:19.126Z,3.05
2018-09-06T14:43:14.135Z,3.11
2018-09-06T14:49:09.138Z,3.39
2018-09-06T14:55:04.149Z,3.3
2018-09-06T15:00:59.139Z,3.35
2018-09-06T15:06:54.154Z,3.39
2018-09-06T15:12:49.155Z,3.38
2018-09-06T15:18:44.159Z,3.39
2018-09-06T15:24:39.175Z,3.38
2018-09-06T15:30:34.163Z,3.3
2018-09-06T15:36:29.193Z,3.72
2018-09-06T15:42:24.239Z,3.86
2018-09-06T15:48:19.253Z,4.32
2018-09-06T15:54:14.746Z,4.52
2018-09-06T16:00:09.252Z,4.06
2018-09-06T16:06:04.207Z,4.19
2018-09-06T16:11:59.216Z,4.65
2018-09-06T16:17:54.238Z,4.34
2018-09-06T16:23:49.237Z,4.17
2018-09-06T16:29:44.265Z,4.3
2018-09-06T16:35:39.293Z,4.29
2018-09-06T16:41:34.226Z,4
2018-09-06T16:47:29.289Z,4.54
2018-09-06T16:53:24.284Z,4.39
2018-09-06T16:59:19.270Z,4.39
2018-09-06T17:05:14.316Z,4.06
2018-09-06T17:11:09.254Z,3.6
2018-09-06T17:17:04.270Z,3.57
2018-09-06T17:22:59.319Z,4.01
2018-09-06T17:28:54.293Z,3.52
2018-09-06T17:34:49.339Z,3.56
2018-09-06T17:40:44.297Z,3.98
2018-09-06T17:46:39.315Z,3.76
2018-09-06T17:52:34.336Z,3.98
2018-09-06T17:58:29.337Z,3.94
2018-09-06T18:04:24.321Z,4.48
2018-09-06T18:10:19.336Z,4.04
2018-09-06T18:16:14.315Z,5.18
2018-09-06T18:22:09.338Z,5.15
2018-09-06T18:28:04.340Z,4.91
2018-09-06T18:33:59.350Z,4.35
2018-09-06T18:39:54.333Z,4.49
2018-09-06T18:45:49.331Z,4.15
2018-09-06T18:51:44.347Z,4.35
2018-09-06T18:57:39.339Z,3.92
2018-09-06T19:03:34.387Z,4.07
2018-09-06T19:09:29.404Z,3.77
2018-09-06T19:15:24.388Z,4.38
2018-09-06T19:21:19.375Z,4.23
2018-09-06T19:27:14.378Z,4.03
2018-09-06T19:33:09.373Z,4.53
2018-09-06T19:39:04.446Z,4.26
2018-09-06T19:44:59.419Z,4.62
2018-09-06T19:50:54.404Z,4.75
2018-09-06T19:56:49.406Z,4.71
2018-09-06T20:02:44.446Z,4.86
2018-09-06T20:08:39.408Z,6.17
2018-09-06T20:14:34.428Z,5.64
2018-09-06T20:20:29.433Z,5.27
2018-09-06T20:26:24.468Z,4.64
2018-09-06T20:32:19.423Z,5.02
2018-09-06T20:38:14.431Z,5
2018-09-06T20:44:09.437Z,5.1
2018-09-06T20:50:04.460Z,5.23
2018-09-06T20:55:59.445Z,5.82
2018-09-06T21:01:54.484Z,5.16
2018-09-06T21:07:49.464Z,5.96
2018-09-06T21:13:44.449Z,5.28
2018-09-06T21:19:39.468Z,5.28
2018-09-06T21:25:34.488Z,5.24
2018-09-06T21:31:29.476Z,5.43
2018-09-06T21:37:24.486Z,5.73
2018-09-06T21:43:19.502Z,5.31
2018-09-06T21:49:14.505Z,5.5
2018-09-06T21:55:09.496Z,5.84
2018-09-06T22:01:04.515Z,5.15
2018-09-06T22:06:59.547Z,5.06
2018-09-06T22:12:54.505Z,4.97
2018-09-06T22:18:49.533Z,4.75
2018-09-06T22:24:44.554Z,4.68
2018-09-06T22:30:39.517Z,5.35
2018-09-06T22:36:34.527Z,5.06
2018-09-06T22:42:29.526Z,5.55
2018-09-06T22:48:24.546Z,5.87
2018-09-06T22:54:19.768Z,5.14
2018-09-06T23:00:14.565Z,5.4
2018-09-06T23:06:09.565Z,5.06
2018-09-06T23:12:04.575Z,4.87
2018-09-06T23:17:59.559Z,4.25
2018-09-06T23:23:54.619Z,4.91
2018-09-06T23:29:49.571Z,4.96
2018-09-06T23:35:44.581Z,5.03
2018-09-06T23:41:39.602Z,4.85
2018-09-06T23:47:34.573Z,4.45
2018-09-06T23:53:29.618Z,5.51
2018-09-06T23:59:24.595Z,5.13
